Aérodrome :
LOGIN :

S'inscrire | Disclaimer

   EN    FR    IT 

 










Légende :    VFR   VFR Marginal   IFR   IFR Intensif   IFR Très Intensif
Visi : 
Plafond : 
>= 8 km
>= 3000ft
5 à 8 km
1000 à 3000 ft
1500m à 5 km
500 à 1000 ft
800 à 1500m
200 à 500 ft
< 800m
< 200 ft
Symboles :   Orages  Brouillard  Fortes neiges  Fortes précipitations  Vent > 20 kt
SIGMETs :   Divers  Orages  Givrage  Turbulence  Onde Orograph.  Cendres Volcan.






- Altitude de l'aérodrome : 256 ft
- Code IATA : KUN


EYKA - Kaunas

DERNIER METAR :
  • 071020Z 19011KT 150V250 CAVOK 19/M01 Q1028

METARs EXPIRÉS :
  • 070950Z 18009KT 110V260 CAVOK 18/M01 Q1028
  • 070920Z 17009KT 120V210 CAVOK 17/M01 Q1028
  • 070850Z 20009KT 120V250 CAVOK 16/M01 Q1028
  • 070820Z 18006KT 120V250 CAVOK 14/M03 Q1029
  • 070750Z 19010KT 150V220 CAVOK 13/M03 Q1029

TAF TAF EYKA
Valide du 07 à 06h jusqu'au 08 à 06h UTC


070500Z 0706/0806 18010KT CAVOK
BECMG 0710/0712 24012G22KT
BECMG 0718/0719 31012KT



MET'MAP, la Météo Aéronautique d'un coup d'oeil ! - Copyright ORBIFLY Décembre 2007 - Disclaimer

ORBIFLY MET'MAP TEAM :

Programmation & Développement : Alexandra Zaïnal
Sur une idée originale de : Baudouin d'Aumeries
Assistance à la programmation : Marc-Olivier Méhu
Soutien technique & logistique : Manuel Goepfert

Contact : metmap@orbifly.com




SOURCES & CREDITS :

   NOAA